Time,TemperatureF,DewpointF,PressureIn,WindDirection,WindDirectionDegrees,WindSpeedMPH,WindSpeedGustMPH,Humidity,HourlyPrecipIn,Conditions,Clouds,dailyrainin,SoftwareType,DateUTC
2013-12-31 02:42:00,9.0,4.0,30.06,North,-999,0.0,3.0,78,-99.99,,,-99.99,,2013-12-31 07:42:00,
2013-12-31 04:22:00,10.0,6.0,30.02,North,-999,0.0,0.0,84,-99.99,,,-99.99,,2013-12-31 09:22:00,
2013-12-31 05:23:00,9.0,5.0,30.02,North,-999,0.0,0.0,83,-99.99,,,-99.99,,2013-12-31 10:23:00,
2013-12-31 06:22:00,8.0,5.0,30.01,North,-999,0.0,0.0,85,-99.99,,,-99.99,,2013-12-31 11:22:00,
2013-12-31 07:22:00,8.0,5.0,30.03,North,-999,0.0,0.0,84,-99.99,,,-99.99,,2013-12-31 12:22:00,
2013-12-31 07:52:00,10.0,7.0,30.03,North,-999,0.0,0.0,86,-99.99,,,-99.99,,2013-12-31 12:52:00,
2013-12-31 08:22:00,9.0,6.0,30.03,North,-999,0.0,0.0,86,-99.99,,,-99.99,,2013-12-31 13:22:00,
2013-12-31 15:11:00,17.0,4.0,30.07,WSW,255,11.0,21.0,57,-99.99,,,-99.99,,2013-12-31 20:11:00,
2013-12-31 15:22:00,17.0,4.0,30.07,WSW,255,11.0,21.0,57,-99.99,,,-99.99,,2013-12-31 20:22:00,
2013-12-31 15:42:00,17.0,4.0,30.07,West,260,14.0,22.0,57,-99.99,,,-99.99,,2013-12-31 20:42:00,
2013-12-31 16:22:00,15.0,6.0,30.09,WNW,290,17.0,44.0,67,-99.99,,,-99.99,,2013-12-31 21:22:00,
2013-12-31 17:23:00,13.0,6.0,30.08,West,265,16.0,25.0,72,-99.99,,,-99.99,,2013-12-31 22:23:00,
2013-12-31 18:22:00,11.0,4.0,30.08,West,260,15.0,21.0,71,-99.99,,,-99.99,,2013-12-31 23:22:00,
2013-12-31 19:22:00,10.0,4.0,30.08,WSW,255,15.0,26.0,76,-99.99,,,-99.99,,2014-01-01 00:22:00,
2013-12-31 20:11:00,8.0,3.0,30.16,WSW,250,15.0,20.0,78,-99.99,,,-99.99,,2014-01-01 01:11:00,
2013-12-31 20:42:00,7.0,2.0,30.16,WSW,245,15.0,20.0,77,-99.99,,,-99.99,,2014-01-01 01:42:00,
2013-12-31 21:12:00,6.0,1.0,30.16,WSW,250,15.0,23.0,78,-99.99,,,-99.99,,2014-01-01 02:12:00,
2013-12-31 21:42:00,6.0,0.0,30.16,WSW,245,17.0,22.0,77,-99.99,,,-99.99,,2014-01-01 02:42:00,
2013-12-31 22:12:00,5.0,0.0,30.16,WSW,250,15.0,21.0,77,-99.99,,,-99.99,,2014-01-01 03:12:00,
2013-12-31 22:44:00,5.0,-1.0,30.25,WSW,245,18.0,24.0,77,-99.99,,,-99.99,,2014-01-01 03:44:00,
2013-12-31 23:13:00,4.0,-2.0,30.25,WSW,245,15.0,20.0,76,-99.99,,,-99.99,,2014-01-01 04:13:00,
2013-12-31 23:23:00,4.0,-2.0,30.25,WSW,245,15.0,19.0,76,-99.99,,,-99.99,,2014-01-01 04:23:00,
2013-12-31 23:43:00,4.0,-2.0,30.25,WSW,250,12.0,22.0,75,-99.99,,,-99.99,,2014-01-01 04:43:00,